createdAt,value
2023-01-23T00:01:08.657Z,92.86
2023-01-23T00:03:35.197Z,92.67
2023-01-23T00:06:04.924Z,93.50
2023-01-23T00:08:32.258Z,93.66
2023-01-23T00:10:58.855Z,93.01
2023-01-23T00:13:25.723Z,92.52
2023-01-23T00:15:52.245Z,92.97
2023-01-23T00:18:18.713Z,94.29
2023-01-23T00:20:45.302Z,93.99
2023-01-23T00:23:12.381Z,94.20
2023-01-23T00:25:38.937Z,94.58
2023-01-23T00:28:05.615Z,93.57
2023-01-23T00:30:33.358Z,93.55
2023-01-23T00:32:59.932Z,92.70
2023-01-23T00:35:26.405Z,92.56
2023-01-23T00:37:54.401Z,92.47
2023-01-23T00:40:21.244Z,92.64
2023-01-23T00:42:47.890Z,91.96
2023-01-23T00:45:14.375Z,91.85
2023-01-23T00:47:40.803Z,91.54
2023-01-23T00:50:07.857Z,92.09
2023-01-23T00:52:34.296Z,92.37
2023-01-23T00:55:00.809Z,93.00
2023-01-23T00:57:27.685Z,92.97
2023-01-23T00:59:54.126Z,92.37
2023-01-23T01:02:20.715Z,92.04
2023-01-23T01:04:47.205Z,91.90
2023-01-23T01:07:13.702Z,93.13
2023-01-23T01:09:40.192Z,92.80
2023-01-23T01:12:06.883Z,92.58
2023-01-23T01:14:33.387Z,92.65
2023-01-23T01:16:59.837Z,92.16
2023-01-23T01:19:28.140Z,92.26
2023-01-23T01:21:54.669Z,92.34
2023-01-23T01:24:21.153Z,91.76
2023-01-23T01:26:47.616Z,91.87
2023-01-23T01:29:14.164Z,92.62
2023-01-23T01:31:43.191Z,92.15
2023-01-23T01:34:09.708Z,92.19
2023-01-23T01:36:36.179Z,92.43
2023-01-23T01:39:02.642Z,93.15
2023-01-23T01:41:29.150Z,93.39
2023-01-23T01:43:57.111Z,93.40
2023-01-23T01:46:28.655Z,93.20
2023-01-23T01:49:00.273Z,93.20
2023-01-23T01:51:31.886Z,92.80
2023-01-23T01:54:14.015Z,93.29
2023-01-23T01:56:50.464Z,93.36
2023-01-23T01:59:19.849Z,94.05
2023-01-23T02:01:50.359Z,93.35
2023-01-23T02:04:17.636Z,94.45
2023-01-23T02:06:44.277Z,93.12
2023-01-23T02:09:17.263Z,93.74
2023-01-23T02:11:44.125Z,94.42
2023-01-23T02:14:11.800Z,93.70
2023-01-23T02:16:40.783Z,93.46
2023-01-23T02:19:18.544Z,92.27
2023-01-23T02:21:51.006Z,92.68
2023-01-23T02:24:22.984Z,91.29
2023-01-23T02:26:52.372Z,91.05
2023-01-23T02:29:20.292Z,91.50
2023-01-23T02:31:52.925Z,91.88
2023-01-23T02:34:22.193Z,91.23
2023-01-23T02:36:49.039Z,91.87
2023-01-23T02:39:18.568Z,91.23
2023-01-23T02:41:51.136Z,91.67
2023-01-23T02:44:34.058Z,91.56
2023-01-23T02:47:08.009Z,91.22
2023-01-23T02:49:34.680Z,91.02
2023-01-23T02:52:03.933Z,91.42
2023-01-23T02:54:31.628Z,90.81
2023-01-23T02:56:58.517Z,90.53
2023-01-23T02:59:43.706Z,90.92
2023-01-23T03:02:10.657Z,90.77
2023-01-23T03:04:37.149Z,90.63
2023-01-23T03:07:03.666Z,90.45
2023-01-23T03:09:30.130Z,90.81
2023-01-23T03:11:56.550Z,90.77
2023-01-23T03:14:24.421Z,91.00
2023-01-23T03:16:53.847Z,90.48
2023-01-23T03:19:24.393Z,90.21
2023-01-23T03:21:51.333Z,90.57
2023-01-23T03:24:19.372Z,90.13
2023-01-23T03:26:47.613Z,90.30
2023-01-23T03:29:42.872Z,90.14
2023-01-23T03:32:11.925Z,89.85
2023-01-23T03:34:38.778Z,90.54
2023-01-23T03:37:07.809Z,90.48
2023-01-23T03:39:54.371Z,90.52
2023-01-23T03:42:21.781Z,91.35
2023-01-23T03:44:52.290Z,90.30
2023-01-23T03:47:22.483Z,90.75
2023-01-23T03:49:48.982Z,91.76
2023-01-23T03:52:15.556Z,91.87
2023-01-23T03:54:42.751Z,91.65
2023-01-23T03:57:10.622Z,91.46
2023-01-23T03:59:55.946Z,91.50
2023-01-23T04:02:27.780Z,91.45
2023-01-23T04:04:54.607Z,91.02
2023-01-23T04:07:21.263Z,91.53
2023-01-23T04:09:49.271Z,92.00
2023-01-23T04:12:16.131Z,92.41
2023-01-23T04:14:46.780Z,92.21
2023-01-23T04:17:14.326Z,92.00
2023-01-23T04:19:41.060Z,93.25
2023-01-23T04:22:07.515Z,93.66
2023-01-23T04:24:40.239Z,94.07
2023-01-23T04:27:06.822Z,93.63
2023-01-23T04:29:34.719Z,92.69
2023-01-23T04:32:02.299Z,92.53
2023-01-23T04:34:33.620Z,92.37
2023-01-23T04:37:00.959Z,92.78
2023-01-23T04:39:27.775Z,92.40
2023-01-23T04:41:54.366Z,91.83
2023-01-23T04:44:37.023Z,92.85
2023-01-23T04:47:23.470Z,92.62
2023-01-23T04:49:50.011Z,92.09
2023-01-23T04:52:17.460Z,91.76
2023-01-23T04:54:52.527Z,91.77
2023-01-23T04:57:19.726Z,91.61
2023-01-23T04:59:47.627Z,91.77
2023-01-23T05:02:14.235Z,91.57
2023-01-23T05:04:43.106Z,91.96
2023-01-23T05:07:12.061Z,90.84
2023-01-23T05:09:42.964Z,90.01
2023-01-23T05:12:13.525Z,89.71
2023-01-23T05:14:40.486Z,89.47
2023-01-23T05:17:07.286Z,88.71
2023-01-23T05:19:39.007Z,88.38
2023-01-23T05:22:06.364Z,88.44
2023-01-23T05:24:32.870Z,88.94
2023-01-23T05:26:59.420Z,88.93
2023-01-23T05:29:29.598Z,87.70
2023-01-23T05:32:01.883Z,88.09
2023-01-23T05:34:37.307Z,88.46
2023-01-23T05:37:09.953Z,88.81
2023-01-23T05:39:38.581Z,89.24
2023-01-23T05:42:05.561Z,89.23
2023-01-23T05:44:50.613Z,89.46
2023-01-23T05:47:28.939Z,89.16
2023-01-23T05:49:56.747Z,89.84
2023-01-23T05:52:28.115Z,90.09
2023-01-23T05:54:54.806Z,90.20
2023-01-23T05:57:21.825Z,90.82
2023-01-23T06:00:11.477Z,91.56
2023-01-23T06:02:56.471Z,90.87
2023-01-23T06:05:28.729Z,91.46
2023-01-23T06:08:00.803Z,91.57
2023-01-23T06:10:27.315Z,91.29
2023-01-23T06:12:54.938Z,90.88
2023-01-23T06:15:22.093Z,90.59
2023-01-23T06:17:51.426Z,90.63
2023-01-23T06:20:18.879Z,90.15
2023-01-23T06:22:46.693Z,90.77
2023-01-23T06:25:13.975Z,90.92
2023-01-23T06:27:41.252Z,90.19
2023-01-23T06:30:09.710Z,89.92
2023-01-23T06:32:41.561Z,90.32
2023-01-23T06:35:09.713Z,90.02
2023-01-23T06:37:39.617Z,89.97
2023-01-23T06:40:12.909Z,90.31
2023-01-23T06:42:42.092Z,90.29
2023-01-23T06:45:11.203Z,90.92
2023-01-23T06:47:38.067Z,90.86
2023-01-23T06:50:05.119Z,90.70
2023-01-23T06:52:36.286Z,89.91
2023-01-23T06:55:02.875Z,91.06
2023-01-23T06:57:29.479Z,91.14
2023-01-23T06:59:57.962Z,91.07
2023-01-23T07:02:24.472Z,89.82
2023-01-23T07:04:51.722Z,89.56
2023-01-23T07:07:18.609Z,89.99
2023-01-23T07:09:47.683Z,89.64
2023-01-23T07:12:23.578Z,89.44
2023-01-23T07:14:50.062Z,88.08
2023-01-23T07:17:21.917Z,88.47
2023-01-23T07:19:50.728Z,89.00
2023-01-23T07:22:19.835Z,89.00
2023-01-23T07:24:47.691Z,89.07
2023-01-23T07:27:15.273Z,88.50
2023-01-23T07:29:42.650Z,87.47
2023-01-23T07:32:11.045Z,87.26
2023-01-23T07:34:37.860Z,87.21
2023-01-23T07:37:04.265Z,88.26
2023-01-23T07:39:31.410Z,88.02
2023-01-23T07:41:57.842Z,88.63
2023-01-23T07:44:27.937Z,87.75
2023-01-23T07:46:54.407Z,88.11
2023-01-23T07:49:21.034Z,88.80
2023-01-23T07:51:47.479Z,88.66
2023-01-23T07:54:14.018Z,88.39
2023-01-23T07:56:40.453Z,88.05
2023-01-23T07:59:06.895Z,88.40
2023-01-23T08:01:33.333Z,88.72
2023-01-23T08:03:59.915Z,89.18
2023-01-23T08:06:26.457Z,90.00
2023-01-23T08:08:52.887Z,89.27
2023-01-23T08:11:19.486Z,90.21
2023-01-23T08:13:49.905Z,90.03
2023-01-23T08:16:16.535Z,90.29
2023-01-23T08:18:42.963Z,91.48
2023-01-23T08:21:09.762Z,90.62
2023-01-23T08:23:36.362Z,91.14
2023-01-23T08:26:05.850Z,91.27
2023-01-23T08:28:32.333Z,92.16
2023-01-23T08:31:07.206Z,91.71
2023-01-23T08:33:34.592Z,91.34
2023-01-23T08:36:01.499Z,90.68
2023-01-23T08:38:28.304Z,90.09
2023-01-23T08:40:58.166Z,89.89
2023-01-23T08:43:24.705Z,89.75
2023-01-23T08:45:53.784Z,89.96
2023-01-23T08:48:22.870Z,89.89
2023-01-23T08:50:50.340Z,89.15
2023-01-23T08:53:17.401Z,88.25
2023-01-23T08:55:43.859Z,89.15
2023-01-23T08:58:13.121Z,89.12
2023-01-23T09:00:40.741Z,89.52
2023-01-23T09:03:09.864Z,89.06
2023-01-23T09:05:37.549Z,89.24
2023-01-23T09:08:04.134Z,88.72
2023-01-23T09:10:30.745Z,88.68
2023-01-23T09:12:57.376Z,87.90
2023-01-23T09:15:23.882Z,88.23
2023-01-23T09:17:50.795Z,88.02
2023-01-23T09:20:17.468Z,87.48
2023-01-23T09:22:44.859Z,87.35
2023-01-23T09:25:12.248Z,86.80
2023-01-23T09:27:38.747Z,86.97
2023-01-23T09:30:05.791Z,86.53
2023-01-23T09:32:32.288Z,86.58
2023-01-23T09:34:58.781Z,87.35
2023-01-23T09:37:25.223Z,88.27
2023-01-23T09:39:51.680Z,87.47
2023-01-23T09:42:21.965Z,87.05
2023-01-23T09:44:55.318Z,86.79
2023-01-23T09:47:46.877Z,85.95
2023-01-23T09:50:34.931Z,87.06
2023-01-23T09:53:18.655Z,87.33
2023-01-23T09:55:50.887Z,87.76
2023-01-23T09:58:37.296Z,87.19
2023-01-23T10:01:03.842Z,86.90
2023-01-23T10:03:32.344Z,86.66
2023-01-23T10:06:23.114Z,86.67
2023-01-23T10:08:58.207Z,87.44
2023-01-23T10:11:42.889Z,87.32
2023-01-23T10:14:39.024Z,86.70
2023-01-23T10:17:27.131Z,86.19
2023-01-23T10:20:09.877Z,85.41
2023-01-23T10:22:51.102Z,85.27
2023-01-23T10:25:25.622Z,85.49
2023-01-23T10:27:56.090Z,85.56
2023-01-23T10:30:30.966Z,84.73
2023-01-23T10:33:17.597Z,84.53
2023-01-23T10:36:02.304Z,85.16
2023-01-23T10:38:37.670Z,84.93
2023-01-23T10:41:13.283Z,85.16
2023-01-23T10:43:45.217Z,84.68
2023-01-23T10:46:28.760Z,85.43
2023-01-23T10:48:55.838Z,84.30
2023-01-23T10:51:38.501Z,83.53
2023-01-23T10:54:30.771Z,84.74
2023-01-23T10:57:18.507Z,84.38
2023-01-23T11:00:03.670Z,84.67
2023-01-23T11:02:32.835Z,84.83
2023-01-23T11:05:00.573Z,84.98
2023-01-23T11:07:29.944Z,84.23
2023-01-23T11:10:04.402Z,84.93
2023-01-23T11:12:33.549Z,84.70
2023-01-23T11:15:23.761Z,84.65
2023-01-23T11:17:55.853Z,85.26
2023-01-23T11:20:24.680Z,84.12
2023-01-23T11:23:03.746Z,84.79
2023-01-23T11:25:37.802Z,84.95
2023-01-23T11:28:24.830Z,84.75
2023-01-23T11:31:11.870Z,85.57
2023-01-23T11:33:59.291Z,84.81
2023-01-23T11:36:45.349Z,84.56
2023-01-23T11:39:39.878Z,83.64
2023-01-23T11:42:09.854Z,83.96
2023-01-23T11:44:45.864Z,83.01
2023-01-23T11:47:33.338Z,84.03
2023-01-23T11:49:59.696Z,83.48
2023-01-23T11:52:32.602Z,83.17
2023-01-23T11:55:14.312Z,82.84
2023-01-23T11:57:46.874Z,82.66
2023-01-23T12:00:43.638Z,83.59
2023-01-23T12:03:47.823Z,84.71
2023-01-23T12:06:20.179Z,84.71
2023-01-23T12:09:05.751Z,84.24
2023-01-23T12:12:19.289Z,84.61
2023-01-23T12:15:11.813Z,84.36
2023-01-23T12:17:47.729Z,83.65
2023-01-23T12:20:28.164Z,83.67
2023-01-23T12:22:54.531Z,83.03
2023-01-23T12:25:35.212Z,84.44
2023-01-23T12:28:25.814Z,84.54
2023-01-23T12:30:57.491Z,84.60
2023-01-23T12:33:55.529Z,84.63
2023-01-23T12:36:44.156Z,83.67
2023-01-23T12:39:38.559Z,84.43
2023-01-23T12:42:12.955Z,85.07
2023-01-23T12:44:51.576Z,85.00
2023-01-23T12:47:25.126Z,83.89
2023-01-23T12:49:59.602Z,84.92
2023-01-23T12:52:33.547Z,85.33
2023-01-23T12:55:23.307Z,84.21
2023-01-23T12:58:06.922Z,85.40
2023-01-23T13:00:56.900Z,84.74
2023-01-23T13:03:44.793Z,85.26
2023-01-23T13:06:24.391Z,84.88
2023-01-23T13:09:17.535Z,85.08
2023-01-23T13:11:52.530Z,85.30
2023-01-23T13:14:31.481Z,84.59
2023-01-23T13:17:04.016Z,85.31
2023-01-23T13:19:51.237Z,84.84
2023-01-23T13:22:27.755Z,85.08
2023-01-23T13:25:12.800Z,85.18
2023-01-23T13:27:47.289Z,85.29
2023-01-23T13:30:23.526Z,85.89
2023-01-23T13:32:51.782Z,85.84
2023-01-23T13:35:40.211Z,85.46
2023-01-23T13:38:38.364Z,86.21
2023-01-23T13:41:24.769Z,85.75
2023-01-23T13:43:52.943Z,86.04
2023-01-23T13:46:38.023Z,85.69
2023-01-23T14:21:59.623Z,86.28
2023-01-23T14:24:46.025Z,86.50
2023-01-23T14:27:29.496Z,86.54
2023-01-23T14:30:03.290Z,85.80
2023-01-23T14:32:32.619Z,86.49
2023-01-23T14:34:59.838Z,86.60
2023-01-23T14:37:27.497Z,86.86
2023-01-23T14:39:57.946Z,86.20
2023-01-23T14:42:30.200Z,86.41
2023-01-23T14:45:01.754Z,86.41
2023-01-23T14:47:34.656Z,85.67
2023-01-23T14:50:03.803Z,85.90
2023-01-23T14:52:31.483Z,86.09
2023-01-23T14:55:07.223Z,85.30
2023-01-23T14:57:35.495Z,85.09
2023-01-23T15:00:03.732Z,84.42
2023-01-23T15:02:33.356Z,85.03
2023-01-23T15:05:11.917Z,84.60
2023-01-23T15:07:48.452Z,84.55
2023-01-23T15:10:36.890Z,83.41
2023-01-23T15:13:09.829Z,83.54
2023-01-23T15:15:36.793Z,83.01
2023-01-23T15:18:15.611Z,83.08
2023-01-23T15:20:51.894Z,83.30
2023-01-23T15:23:18.292Z,82.83
2023-01-23T15:25:54.448Z,84.39
2023-01-23T15:28:40.239Z,82.72
2023-01-23T15:31:31.634Z,82.19
2023-01-23T15:34:17.151Z,81.23
2023-01-23T15:36:48.308Z,80.58
2023-01-23T15:39:26.443Z,79.97
2023-01-23T15:41:57.483Z,79.99
2023-01-23T15:44:28.060Z,79.44
2023-01-23T15:46:56.220Z,78.69
2023-01-23T15:49:26.240Z,78.79
2023-01-23T15:51:55.446Z,79.90
2023-01-23T15:54:31.653Z,79.60
2023-01-23T15:57:06.961Z,79.26
2023-01-23T15:59:34.427Z,78.55
2023-01-23T16:02:00.912Z,79.82
2023-01-23T16:04:27.434Z,79.66
2023-01-23T16:06:54.158Z,79.85
2023-01-23T16:09:30.876Z,79.85
2023-01-23T16:11:59.570Z,80.19
2023-01-23T16:14:26.116Z,80.70
2023-01-23T16:16:52.798Z,79.85
2023-01-23T16:19:19.267Z,79.13
2023-01-23T16:21:55.811Z,79.53
2023-01-23T16:24:26.981Z,79.55
2023-01-23T16:26:56.479Z,78.95
2023-01-23T16:29:29.175Z,78.85
2023-01-23T16:31:57.444Z,79.04
2023-01-23T16:34:23.944Z,79.09
2023-01-23T16:36:52.747Z,78.54
2023-01-23T16:39:22.774Z,79.40
2023-01-23T16:41:49.831Z,79.36
2023-01-23T16:44:18.735Z,79.62
2023-01-23T16:46:46.142Z,80.13
2023-01-23T16:49:13.491Z,79.52
2023-01-23T16:52:00.939Z,79.47
2023-01-23T16:54:27.585Z,79.37
2023-01-23T16:56:56.905Z,80.34
2023-01-23T16:59:34.212Z,81.30
2023-01-23T17:02:04.783Z,80.91
2023-01-23T17:04:31.339Z,81.96
2023-01-23T17:06:57.829Z,82.80
2023-01-23T17:09:24.284Z,82.38
2023-01-23T17:11:55.202Z,83.07
2023-01-23T17:14:28.424Z,82.48
2023-01-23T17:17:02.041Z,82.71
2023-01-23T17:19:32.492Z,84.70
2023-01-23T17:22:01.173Z,83.29
2023-01-23T17:24:27.991Z,83.85
2023-01-23T17:26:54.554Z,84.23
2023-01-23T17:29:21.344Z,84.17
2023-01-23T17:31:48.752Z,85.13
2023-01-23T17:34:27.041Z,85.36
2023-01-23T17:36:55.019Z,85.61
2023-01-23T17:39:21.583Z,85.98
2023-01-23T17:41:48.109Z,86.21
2023-01-23T17:44:14.572Z,86.44
2023-01-23T17:46:41.389Z,87.08
2023-01-23T17:49:27.242Z,86.71
2023-01-23T17:51:54.142Z,87.54
2023-01-23T17:54:20.815Z,87.49
2023-01-23T17:56:47.339Z,87.53
2023-01-23T17:59:13.769Z,87.08
2023-01-23T18:01:40.821Z,87.32
2023-01-23T18:04:18.935Z,87.34
2023-01-23T18:06:46.127Z,88.01
2023-01-23T18:09:13.950Z,87.91
2023-01-23T18:11:43.871Z,86.46
2023-01-23T18:14:31.905Z,87.20
2023-01-23T18:16:58.591Z,87.17
2023-01-23T18:19:27.383Z,87.98
2023-01-23T18:21:56.123Z,87.41
2023-01-23T18:24:30.027Z,87.61
2023-01-23T18:27:23.415Z,87.83
2023-01-23T18:29:58.629Z,88.36
2023-01-23T18:32:35.630Z,87.68
2023-01-23T18:35:23.764Z,85.76
2023-01-23T18:37:57.088Z,86.88
2023-01-23T18:40:31.231Z,86.42
2023-01-23T18:43:03.719Z,85.95
2023-01-23T18:45:30.882Z,86.48
2023-01-23T18:47:57.769Z,86.44
2023-01-23T18:50:26.875Z,86.36
2023-01-23T18:53:19.359Z,86.73
2023-01-23T18:55:54.810Z,86.54
2023-01-23T18:58:41.116Z,86.91
2023-01-23T19:01:26.004Z,86.28
2023-01-23T19:03:55.202Z,85.55
2023-01-23T19:06:24.460Z,85.72
2023-01-23T19:08:54.131Z,85.62
2023-01-23T19:11:52.753Z,84.68
2023-01-23T19:14:48.606Z,85.99
2023-01-23T19:17:34.519Z,85.77
2023-01-23T19:20:21.397Z,85.69
2023-01-23T19:23:02.199Z,87.34
2023-01-23T19:25:28.988Z,86.47
2023-01-23T19:27:58.103Z,85.76
2023-01-23T19:30:26.432Z,86.50
2023-01-23T19:32:52.977Z,87.12
2023-01-23T19:35:20.230Z,86.55
2023-01-23T19:37:46.805Z,87.12
2023-01-23T19:40:15.762Z,86.90
2023-01-23T19:42:54.192Z,85.97
2023-01-23T19:45:25.521Z,86.45
2023-01-23T19:47:53.397Z,86.66
2023-01-23T19:50:21.724Z,86.59
2023-01-23T19:52:50.153Z,86.06
2023-01-23T19:55:28.534Z,87.46
2023-01-23T19:57:57.861Z,87.09
2023-01-23T20:00:31.032Z,85.83
2023-01-23T20:02:58.214Z,85.70
2023-01-23T20:05:25.746Z,85.28
2023-01-23T20:07:53.996Z,85.44
2023-01-23T20:10:20.672Z,85.48
2023-01-23T20:12:51.885Z,85.63
2023-01-23T20:15:22.308Z,86.43
2023-01-23T20:17:49.542Z,86.97
2023-01-23T20:20:16.387Z,86.73
2023-01-23T20:22:43.877Z,86.42
2023-01-23T20:25:14.960Z,86.56
2023-01-23T20:27:41.939Z,86.57
2023-01-23T20:30:15.509Z,86.78
2023-01-23T20:32:42.041Z,87.02
2023-01-23T20:35:09.635Z,87.05
2023-01-23T20:37:36.122Z,87.17
2023-01-23T20:40:02.960Z,87.20
2023-01-23T20:42:29.451Z,87.01
2023-01-23T20:44:55.908Z,87.15
2023-01-23T20:47:22.522Z,87.00
2023-01-23T20:49:49.394Z,86.85
2023-01-23T20:52:34.317Z,87.53
2023-01-23T20:55:00.787Z,87.33
2023-01-23T20:57:47.223Z,86.67
2023-01-23T21:00:13.998Z,86.23
2023-01-23T21:02:40.439Z,86.24
2023-01-23T21:05:07.180Z,86.95
2023-01-23T21:07:33.675Z,87.21
2023-01-23T21:10:00.197Z,86.37
2023-01-23T21:12:26.620Z,86.27
2023-01-23T21:14:53.061Z,86.69
2023-01-23T21:17:19.720Z,87.38
2023-01-23T21:19:47.321Z,87.61
2023-01-23T21:22:13.743Z,87.96
2023-01-23T21:24:40.200Z,88.32
2023-01-23T21:27:06.980Z,88.56
2023-01-23T21:29:34.335Z,88.49
2023-01-23T21:32:01.037Z,88.75
2023-01-23T21:34:27.574Z,88.92
2023-01-23T21:36:54.179Z,89.16
2023-01-23T21:39:20.933Z,89.53
2023-01-23T21:41:47.645Z,88.69
2023-01-23T21:44:14.520Z,88.91
2023-01-23T21:46:41.678Z,88.01
2023-01-23T21:49:08.306Z,89.10
2023-01-23T21:51:34.808Z,88.83
2023-01-23T21:54:01.296Z,88.28
2023-01-23T21:56:27.850Z,88.78
2023-01-23T21:58:55.258Z,88.27
2023-01-23T22:01:35.223Z,88.29
2023-01-23T22:04:04.878Z,87.93
2023-01-23T22:06:32.814Z,87.76
2023-01-23T22:08:59.603Z,87.86
2023-01-23T22:11:26.275Z,87.39
2023-01-23T22:13:53.226Z,87.78
2023-01-23T22:16:22.712Z,86.83
2023-01-23T22:18:51.863Z,86.71
2023-01-23T22:21:18.353Z,86.96
2023-01-23T22:23:44.838Z,87.25
2023-01-23T22:26:11.834Z,87.38
2023-01-23T22:28:38.352Z,88.06
2023-01-23T22:31:10.902Z,87.38
2023-01-23T22:33:40.916Z,88.02
2023-01-23T22:36:09.717Z,87.62
2023-01-23T22:38:36.258Z,86.95
2023-01-23T22:41:04.729Z,86.35
2023-01-23T22:43:32.385Z,86.70
2023-01-23T22:46:19.211Z,86.29
2023-01-23T22:48:45.976Z,86.73
2023-01-23T22:51:19.664Z,87.08
2023-01-23T22:53:46.559Z,86.97
2023-01-23T22:56:13.173Z,87.79
2023-01-23T22:58:40.294Z,87.23
2023-01-23T23:01:07.199Z,87.68
2023-01-23T23:03:34.869Z,88.14
2023-01-23T23:06:05.144Z,87.92
2023-01-23T23:08:32.937Z,88.61
2023-01-23T23:11:03.470Z,88.46
2023-01-23T23:13:31.770Z,88.98
2023-01-23T23:16:03.187Z,89.35
2023-01-23T23:18:29.760Z,88.67
2023-01-23T23:21:05.678Z,88.23
2023-01-23T23:23:32.316Z,88.77
2023-01-23T23:25:59.038Z,89.08
2023-01-23T23:28:26.801Z,88.38
2023-01-23T23:30:54.035Z,88.87
2023-01-23T23:33:21.030Z,88.93
2023-01-23T23:35:47.511Z,88.04
2023-01-23T23:38:14.814Z,88.34
2023-01-23T23:40:41.910Z,87.69
2023-01-23T23:43:09.032Z,88.44
2023-01-23T23:45:35.554Z,88.03
2023-01-23T23:48:02.279Z,87.50
2023-01-23T23:50:29.301Z,87.22
2023-01-23T23:52:55.905Z,87.17
2023-01-23T23:55:22.724Z,87.94
2023-01-23T23:57:49.427Z,89.51
